WWA152 KMIA-TJSJ
Flight info
| Callsign | WWA152 |
|---|---|
| Flight time | N/A |
| Altitude | 37000 |
| Route | KLADA2 BITAC Y290 BEANO BEANO3 |
| Aircraft | A319/M-SDE3FGHIRWY/LB1 |
Departure
| Time | 2026-05-05 14:11 |
|---|---|
| Airport | Miami International Airport (KMIA) |
Arrival
| Time | N/A |
|---|---|
| Airport | Luis Munoz Marin International Airport (TJSJ) |
| Time | Latitude | Longitude | Altitude | Speed | Heading |
|---|---|---|---|---|---|
| 2026-05-05 13:38 | 25.79194 | -80.27620 | 13 ft | 0 kts | 267° |
| 2026-05-05 13:55 | 25.79194 | -80.27612 | 13 ft | 2 kts | 268° |
| 2026-05-05 13:55 | 25.79195 | -80.27595 | 13 ft | 2 kts | 269° |
| 2026-05-05 13:55 | 25.79195 | -80.27579 | 13 ft | 2 kts | 269° |
| 2026-05-05 13:55 | 25.79195 | -80.27562 | 13 ft | 2 kts | 269° |
| 2026-05-05 13:56 | 25.79196 | -80.27550 | 13 ft | 0 kts | 269° |
| 2026-05-05 13:56 | 25.79197 | -80.27543 | 13 ft | 1 kts | 218° |
| 2026-05-05 13:56 | 25.79201 | -80.27541 | 13 ft | 0 kts | 177° |
| 2026-05-05 13:56 | 25.79194 | -80.27542 | 13 ft | 3 kts | 183° |
| 2026-05-05 13:57 | 25.79149 | -80.27539 | 13 ft | 7 kts | 178° |
| 2026-05-05 13:57 | 25.79102 | -80.27537 | 13 ft | 4 kts | 178° |
| 2026-05-05 13:57 | 25.79088 | -80.27536 | 13 ft | 0 kts | 178° |
| 2026-05-05 14:02 | 25.79085 | -80.27536 | 13 ft | 1 kts | 178° |
| 2026-05-05 14:02 | 25.79069 | -80.27535 | 13 ft | 3 kts | 178° |
| 2026-05-05 14:02 | 25.79040 | -80.27534 | 13 ft | 5 kts | 178° |
| 2026-05-05 14:02 | 25.78996 | -80.27536 | 13 ft | 6 kts | 197° |
| 2026-05-05 14:03 | 25.78963 | -80.27583 | 13 ft | 8 kts | 258° |
| 2026-05-05 14:03 | 25.78949 | -80.27659 | 13 ft | 10 kts | 262° |
| 2026-05-05 14:03 | 25.78943 | -80.27750 | 13 ft | 12 kts | 268° |
| 2026-05-05 14:03 | 25.78940 | -80.27855 | 14 ft | 13 kts | 268° |
| 2026-05-05 14:04 | 25.78954 | -80.27965 | 14 ft | 14 kts | 300° |
| 2026-05-05 14:04 | 25.78988 | -80.28074 | 14 ft | 15 kts | 264° |
| 2026-05-05 14:04 | 25.78973 | -80.28203 | 14 ft | 16 kts | 266° |
| 2026-05-05 14:04 | 25.78968 | -80.28341 | 14 ft | 17 kts | 266° |
| 2026-05-05 14:05 | 25.78962 | -80.28484 | 15 ft | 17 kts | 267° |
| 2026-05-05 14:05 | 25.78956 | -80.28633 | 15 ft | 18 kts | 268° |
| 2026-05-05 14:05 | 25.78949 | -80.28786 | 15 ft | 19 kts | 267° |
| 2026-05-05 14:05 | 25.78929 | -80.28944 | 15 ft | 19 kts | 255° |
| 2026-05-05 14:06 | 25.78902 | -80.29101 | 15 ft | 20 kts | 267° |
| 2026-05-05 14:06 | 25.78897 | -80.29267 | 15 ft | 20 kts | 268° |
| 2026-05-05 14:06 | 25.78888 | -80.29439 | 15 ft | 21 kts | 267° |
| 2026-05-05 14:06 | 25.78882 | -80.29611 | 14 ft | 21 kts | 269° |
| 2026-05-05 14:07 | 25.78875 | -80.29793 | 14 ft | 22 kts | 265° |
| 2026-05-05 14:07 | 25.78867 | -80.29973 | 13 ft | 22 kts | 268° |
| 2026-05-05 14:07 | 25.78858 | -80.30159 | 13 ft | 23 kts | 268° |
| 2026-05-05 14:07 | 25.78850 | -80.30344 | 12 ft | 23 kts | 268° |
| 2026-05-05 14:08 | 25.78843 | -80.30533 | 12 ft | 23 kts | 267° |
| 2026-05-05 14:08 | 25.78836 | -80.30724 | 12 ft | 23 kts | 269° |
| 2026-05-05 14:08 | 25.78833 | -80.30913 | 12 ft | 23 kts | 265° |
| 2026-05-05 14:08 | 25.78818 | -80.31101 | 12 ft | 23 kts | 266° |
| 2026-05-05 14:09 | 25.78813 | -80.31277 | 12 ft | 18 kts | 269° |
| 2026-05-05 14:09 | 25.78809 | -80.31408 | 12 ft | 15 kts | 266° |
| 2026-05-05 14:09 | 25.78764 | -80.31481 | 12 ft | 11 kts | 188° |
| 2026-05-05 14:09 | 25.78690 | -80.31477 | 12 ft | 10 kts | 174° |
| 2026-05-05 14:10 | 25.78616 | -80.31447 | 12 ft | 11 kts | 122° |
| 2026-05-05 14:10 | 25.78614 | -80.31348 | 12 ft | 14 kts | 87° |
| 2026-05-05 14:10 | 25.78628 | -80.31025 | 12 ft | 77 kts | 87° |
| 2026-05-05 14:10 | 25.78666 | -80.30115 | 13 ft | 144 kts | 87° |
| 2026-05-05 14:11 | 25.78727 | -80.28803 | 297 ft | 172 kts | 86° |
| 2026-05-05 14:11 | 25.78806 | -80.27489 | 1012 ft | 169 kts | 84° |
| 2026-05-05 14:11 | 25.78818 | -80.26155 | 1806 ft | 168 kts | 101° |
| 2026-05-05 14:11 | 25.78450 | -80.24843 | 2425 ft | 178 kts | 107° |
| 2026-05-05 14:12 | 25.78064 | -80.23424 | 2979 ft | 193 kts | 104° |
| 2026-05-05 14:12 | 25.77716 | -80.21846 | 3503 ft | 213 kts | 102° |
| 2026-05-05 14:12 | 25.77345 | -80.20085 | 4097 ft | 231 kts | 103° |
| 2026-05-05 14:12 | 25.76846 | -80.18160 | 4777 ft | 247 kts | 112° |
| 2026-05-05 14:13 | 25.75968 | -80.16243 | 5441 ft | 264 kts | 121° |
| 2026-05-05 14:13 | 25.74922 | -80.14246 | 6108 ft | 282 kts | 121° |
| 2026-05-05 14:13 | 25.73872 | -80.12152 | 6987 ft | 290 kts | 118° |
| 2026-05-05 14:13 | 25.72968 | -80.09933 | 7889 ft | 296 kts | 112° |
| 2026-05-05 14:14 | 25.72202 | -80.07609 | 8770 ft | 302 kts | 110° |
| 2026-05-05 14:14 | 25.71450 | -80.05270 | 9618 ft | 308 kts | 110° |
| 2026-05-05 14:14 | 25.70659 | -80.02827 | 10448 ft | 315 kts | 110° |
| 2026-05-05 14:14 | 25.69848 | -80.00335 | 11202 ft | 324 kts | 110° |
| 2026-05-05 14:15 | 25.68988 | -79.97709 | 11675 ft | 342 kts | 110° |
| 2026-05-05 14:15 | 25.68092 | -79.94986 | 12199 ft | 357 kts | 110° |
| 2026-05-05 14:15 | 25.67179 | -79.92226 | 12767 ft | 368 kts | 110° |
| 2026-05-05 14:15 | 25.66198 | -79.89299 | 13146 ft | 385 kts | 111° |
| 2026-05-05 14:16 | 25.65165 | -79.86272 | 13527 ft | 400 kts | 111° |
| 2026-05-05 14:16 | 25.64113 | -79.83174 | 14109 ft | 407 kts | 111° |
| 2026-05-05 14:16 | 25.63061 | -79.80051 | 14761 ft | 412 kts | 110° |
| 2026-05-05 14:16 | 25.61997 | -79.76865 | 15375 ft | 417 kts | 110° |
| 2026-05-05 14:17 | 25.60886 | -79.73535 | 15992 ft | 422 kts | 110° |
| 2026-05-05 14:17 | 25.59791 | -79.70254 | 16570 ft | 428 kts | 110° |
| 2026-05-05 14:17 | 25.58611 | -79.66891 | 17129 ft | 433 kts | 111° |
| 2026-05-05 14:17 | 25.57371 | -79.63517 | 17653 ft | 439 kts | 112° |
| 2026-05-05 14:18 | 25.56112 | -79.60108 | 18172 ft | 445 kts | 111° |
| 2026-05-05 14:18 | 25.54844 | -79.56673 | 18718 ft | 449 kts | 111° |
| 2026-05-05 14:18 | 25.53565 | -79.53191 | 19238 ft | 453 kts | 111° |
| 2026-05-05 14:18 | 25.52273 | -79.49673 | 19752 ft | 457 kts | 111° |
| 2026-05-05 14:19 | 25.50994 | -79.46188 | 20245 ft | 460 kts | 111° |
| 2026-05-05 14:19 | 25.49661 | -79.42554 | 20745 ft | 464 kts | 111° |
| 2026-05-05 14:19 | 25.48348 | -79.38980 | 21245 ft | 467 kts | 111° |
| 2026-05-05 14:19 | 25.47010 | -79.35338 | 21718 ft | 470 kts | 111° |
| 2026-05-05 14:20 | 25.45670 | -79.31692 | 22136 ft | 474 kts | 111° |
| 2026-05-05 14:20 | 25.44317 | -79.28019 | 22545 ft | 478 kts | 112° |
| 2026-05-05 14:20 | 25.42938 | -79.24274 | 22980 ft | 482 kts | 111° |
| 2026-05-05 14:20 | 25.41561 | -79.20543 | 23437 ft | 484 kts | 111° |
| 2026-05-05 14:21 | 25.40151 | -79.16723 | 23889 ft | 487 kts | 111° |
| 2026-05-05 14:21 | 25.38746 | -79.12919 | 24313 ft | 491 kts | 111° |
| 2026-05-05 14:21 | 25.37333 | -79.09095 | 24749 ft | 494 kts | 111° |
| 2026-05-05 14:21 | 25.35916 | -79.05270 | 25210 ft | 496 kts | 111° |
| 2026-05-05 14:22 | 25.34468 | -79.01359 | 25632 ft | 499 kts | 111° |
| 2026-05-05 14:22 | 25.33045 | -78.97523 | 26046 ft | 502 kts | 111° |
| 2026-05-05 14:22 | 25.31583 | -78.93583 | 26487 ft | 504 kts | 111° |
| 2026-05-05 14:22 | 25.30128 | -78.89667 | 26906 ft | 507 kts | 111° |
| 2026-05-05 14:23 | 25.28647 | -78.85683 | 27309 ft | 510 kts | 111° |
| 2026-05-05 14:23 | 25.27184 | -78.81746 | 27696 ft | 514 kts | 111° |
| 2026-05-05 14:23 | 25.25702 | -78.77771 | 28069 ft | 516 kts | 111° |
| 2026-05-05 14:23 | 25.24285 | -78.73967 | 28500 ft | 517 kts | 111° |
| 2026-05-05 14:24 | 25.22931 | -78.70338 | 29002 ft | 515 kts | 111° |
| 2026-05-05 14:24 | 25.21575 | -78.66711 | 29447 ft | 515 kts | 111° |
| 2026-05-05 14:24 | 25.20201 | -78.63034 | 29904 ft | 514 kts | 111° |
| 2026-05-05 14:24 | 25.18857 | -78.59444 | 30300 ft | 514 kts | 110° |
| 2026-05-05 14:25 | 25.17477 | -78.55814 | 30702 ft | 515 kts | 111° |
| 2026-05-05 14:25 | 25.16021 | -78.52209 | 31087 ft | 516 kts | 112° |
| 2026-05-05 14:25 | 25.14528 | -78.48608 | 31473 ft | 516 kts | 112° |
| 2026-05-05 14:25 | 25.13033 | -78.45014 | 31847 ft | 517 kts | 112° |
| 2026-05-05 14:26 | 25.11527 | -78.41376 | 32245 ft | 517 kts | 112° |
| 2026-05-05 14:26 | 25.10051 | -78.37804 | 32621 ft | 517 kts | 112° |
| 2026-05-05 14:26 | 25.08560 | -78.34191 | 32997 ft | 517 kts | 111° |
| 2026-05-05 14:26 | 25.07069 | -78.30571 | 33359 ft | 517 kts | 111° |
| 2026-05-05 14:27 | 25.05585 | -78.26965 | 33724 ft | 517 kts | 111° |
| 2026-05-05 14:27 | 25.04101 | -78.23357 | 34110 ft | 517 kts | 111° |
| 2026-05-05 14:27 | 25.02620 | -78.19759 | 34465 ft | 517 kts | 111° |
| 2026-05-05 14:27 | 25.01144 | -78.16180 | 34803 ft | 517 kts | 111° |
| 2026-05-05 14:28 | 24.99651 | -78.12570 | 35148 ft | 517 kts | 111° |
| 2026-05-05 14:28 | 24.98179 | -78.09006 | 35456 ft | 518 kts | 111° |
| 2026-05-05 14:28 | 24.96680 | -78.05383 | 35709 ft | 519 kts | 111° |
| 2026-05-05 14:28 | 24.95182 | -78.01763 | 35968 ft | 520 kts | 111° |
| 2026-05-05 14:29 | 24.93674 | -77.98114 | 36176 ft | 522 kts | 111° |
| 2026-05-05 14:29 | 24.92188 | -77.94527 | 36382 ft | 523 kts | 111° |
| 2026-05-05 14:29 | 24.90666 | -77.90860 | 36585 ft | 525 kts | 111° |
| 2026-05-05 14:29 | 24.89162 | -77.87236 | 36766 ft | 526 kts | 111° |
| 2026-05-05 14:30 | 24.87625 | -77.83534 | 36873 ft | 529 kts | 111° |
| 2026-05-05 14:30 | 24.86103 | -77.79890 | 37030 ft | 529 kts | 111° |
| 2026-05-05 14:30 | 24.83039 | -77.72530 | 37038 ft | 529 kts | 111° |
| 2026-05-05 14:31 | 24.79961 | -77.65143 | 37044 ft | 531 kts | 111° |
| 2026-05-05 14:31 | 24.76912 | -77.57841 | 37040 ft | 529 kts | 111° |
| 2026-05-05 14:32 | 24.73778 | -77.50508 | 37049 ft | 528 kts | 114° |
| 2026-05-05 14:32 | 24.70242 | -77.42816 | 37048 ft | 529 kts | 114° |
| 2026-05-05 14:33 | 24.66617 | -77.34962 | 37051 ft | 528 kts | 115° |
| 2026-05-05 14:33 | 24.63051 | -77.27200 | 37047 ft | 529 kts | 115° |
| 2026-05-05 14:34 | 24.59444 | -77.19348 | 37048 ft | 528 kts | 114° |
| 2026-05-05 14:34 | 24.55867 | -77.11564 | 37054 ft | 528 kts | 114° |
| 2026-05-05 14:35 | 24.52326 | -77.03865 | 37047 ft | 527 kts | 114° |
| 2026-05-05 14:35 | 24.48732 | -76.96061 | 37053 ft | 527 kts | 115° |
| 2026-05-05 14:36 | 24.45147 | -76.88307 | 37048 ft | 527 kts | 115° |
| 2026-05-05 14:36 | 24.41584 | -76.80612 | 37045 ft | 527 kts | 115° |
| 2026-05-05 14:37 | 24.37995 | -76.72859 | 37042 ft | 526 kts | 115° |
| 2026-05-05 14:37 | 24.34421 | -76.65157 | 37045 ft | 524 kts | 115° |
| 2026-05-05 14:38 | 24.30864 | -76.57501 | 37047 ft | 524 kts | 115° |
| 2026-05-05 14:38 | 24.27273 | -76.49788 | 37039 ft | 525 kts | 115° |
| 2026-05-05 14:39 | 24.23707 | -76.42143 | 37040 ft | 523 kts | 115° |
| 2026-05-05 14:39 | 24.20129 | -76.34489 | 37044 ft | 523 kts | 116° |
| 2026-05-05 14:40 | 24.16524 | -76.26778 | 37043 ft | 524 kts | 115° |
| 2026-05-05 14:40 | 24.12915 | -76.19082 | 37047 ft | 523 kts | 115° |
| 2026-05-05 14:41 | 24.09334 | -76.11446 | 37055 ft | 522 kts | 116° |
| 2026-05-05 14:41 | 24.05762 | -76.03845 | 37046 ft | 521 kts | 116° |
| 2026-05-05 14:42 | 24.02182 | -75.96251 | 37057 ft | 521 kts | 116° |
| 2026-05-05 14:42 | 23.98597 | -75.88650 | 37057 ft | 520 kts | 116° |
| 2026-05-05 14:43 | 23.95003 | -75.81039 | 37056 ft | 519 kts | 116° |
| 2026-05-05 14:43 | 23.91429 | -75.73489 | 37058 ft | 519 kts | 116° |
| 2026-05-05 14:44 | 23.87840 | -75.65922 | 37059 ft | 519 kts | 116° |
| 2026-05-05 14:44 | 23.84248 | -75.58350 | 37064 ft | 519 kts | 116° |
| 2026-05-05 14:45 | 23.80644 | -75.50774 | 37060 ft | 518 kts | 116° |
| 2026-05-05 14:45 | 23.77061 | -75.43245 | 37057 ft | 517 kts | 117° |
| 2026-05-05 14:46 | 23.73493 | -75.35766 | 37054 ft | 516 kts | 117° |
| 2026-05-05 14:46 | 23.69897 | -75.28234 | 37053 ft | 515 kts | 117° |
| 2026-05-05 14:47 | 23.66303 | -75.20730 | 37053 ft | 516 kts | 117° |
| 2026-05-05 14:47 | 23.62715 | -75.13238 | 37054 ft | 515 kts | 118° |
| 2026-05-05 14:48 | 23.59155 | -75.05821 | 37053 ft | 515 kts | 118° |
| 2026-05-05 14:48 | 23.55563 | -74.98357 | 37053 ft | 514 kts | 117° |
| 2026-05-05 14:49 | 23.51974 | -74.90897 | 37058 ft | 513 kts | 117° |
| 2026-05-05 14:49 | 23.48404 | -74.83488 | 37062 ft | 513 kts | 118° |
| 2026-05-05 14:50 | 23.44810 | -74.76051 | 37067 ft | 513 kts | 118° |
| 2026-05-05 14:50 | 23.41237 | -74.68666 | 37073 ft | 513 kts | 118° |
| 2026-05-05 14:51 | 23.37630 | -74.61217 | 37075 ft | 513 kts | 118° |
| 2026-05-05 14:51 | 23.34032 | -74.53796 | 37070 ft | 513 kts | 118° |
| 2026-05-05 14:52 | 23.30433 | -74.46390 | 37068 ft | 513 kts | 118° |
| 2026-05-05 14:52 | 23.26858 | -74.39047 | 37067 ft | 514 kts | 118° |
| 2026-05-05 14:53 | 23.23234 | -74.31603 | 37064 ft | 513 kts | 118° |
| 2026-05-05 14:53 | 23.19614 | -74.24187 | 37067 ft | 513 kts | 118° |
| 2026-05-05 14:54 | 23.15988 | -74.16771 | 37068 ft | 513 kts | 118° |
| 2026-05-05 14:54 | 23.12361 | -74.09360 | 37060 ft | 512 kts | 119° |
| 2026-05-05 14:55 | 23.08751 | -74.02003 | 37053 ft | 513 kts | 119° |
| 2026-05-05 14:55 | 23.05140 | -73.94642 | 37054 ft | 511 kts | 119° |
| 2026-05-05 14:56 | 23.01522 | -73.87282 | 37050 ft | 510 kts | 119° |
| 2026-05-05 14:56 | 22.97901 | -73.79934 | 37050 ft | 510 kts | 118° |
| 2026-05-05 14:57 | 22.94290 | -73.72609 | 37053 ft | 511 kts | 118° |
| 2026-05-05 14:57 | 22.90677 | -73.65292 | 37049 ft | 511 kts | 119° |
| 2026-05-05 14:58 | 22.87032 | -73.57918 | 37050 ft | 510 kts | 119° |
| 2026-05-05 14:58 | 22.83410 | -73.50608 | 37051 ft | 510 kts | 119° |
| 2026-05-05 14:59 | 22.79771 | -73.43276 | 37052 ft | 511 kts | 119° |
| 2026-05-05 14:59 | 22.76139 | -73.35963 | 37056 ft | 509 kts | 119° |
| 2026-05-05 15:00 | 22.73117 | -73.29885 | 37062 ft | 509 kts | 120° |
| 2026-05-05 15:00 | 22.68845 | -73.21310 | 37071 ft | 509 kts | 119° |
| 2026-05-05 15:01 | 22.65226 | -73.14056 | 37071 ft | 509 kts | 119° |
| 2026-05-05 15:01 | 22.61595 | -73.06791 | 37070 ft | 510 kts | 119° |
| 2026-05-05 15:02 | 22.57961 | -72.99523 | 37072 ft | 509 kts | 119° |
| 2026-05-05 15:02 | 22.54314 | -72.92244 | 37064 ft | 509 kts | 120° |
| 2026-05-05 15:03 | 22.50668 | -72.84984 | 37061 ft | 509 kts | 119° |
| 2026-05-05 15:03 | 22.47041 | -72.77763 | 37071 ft | 509 kts | 119° |
| 2026-05-05 15:04 | 22.43387 | -72.70502 | 37073 ft | 508 kts | 119° |
| 2026-05-05 15:04 | 22.39750 | -72.63283 | 37075 ft | 508 kts | 119° |
| 2026-05-05 15:05 | 22.34273 | -72.52432 | 37075 ft | 508 kts | 119° |
| 2026-05-05 15:06 | 22.30627 | -72.45223 | 37074 ft | 507 kts | 119° |
| 2026-05-05 15:06 | 22.26958 | -72.37976 | 37078 ft | 507 kts | 119° |
| 2026-05-05 15:07 | 22.23313 | -72.30791 | 37069 ft | 507 kts | 120° |
| 2026-05-05 15:07 | 22.19647 | -72.23573 | 37070 ft | 506 kts | 119° |
| 2026-05-05 15:08 | 22.15976 | -72.16344 | 37070 ft | 505 kts | 120° |
| 2026-05-05 15:08 | 22.12318 | -72.09162 | 37071 ft | 505 kts | 120° |
| 2026-05-05 15:09 | 22.08650 | -72.01967 | 37072 ft | 504 kts | 120° |
| 2026-05-05 15:09 | 22.04984 | -71.94789 | 37066 ft | 505 kts | 119° |
| 2026-05-05 15:10 | 22.01330 | -71.87644 | 37056 ft | 503 kts | 120° |
| 2026-05-05 15:10 | 21.97647 | -71.80448 | 37051 ft | 503 kts | 119° |
| 2026-05-05 15:11 | 21.93982 | -71.73300 | 37052 ft | 503 kts | 120° |
| 2026-05-05 15:11 | 21.90303 | -71.66132 | 37054 ft | 502 kts | 120° |
| 2026-05-05 15:12 | 21.86630 | -71.58985 | 37053 ft | 502 kts | 120° |
| 2026-05-05 15:12 | 21.82971 | -71.51877 | 37058 ft | 502 kts | 120° |
| 2026-05-05 15:13 | 21.79280 | -71.44713 | 37063 ft | 501 kts | 120° |
| 2026-05-05 15:13 | 21.75620 | -71.37624 | 37063 ft | 500 kts | 120° |
| 2026-05-05 15:14 | 21.71936 | -71.30494 | 37064 ft | 499 kts | 120° |
| 2026-05-05 15:14 | 21.68274 | -71.23413 | 37062 ft | 499 kts | 120° |
| 2026-05-05 15:15 | 21.64584 | -71.16286 | 37059 ft | 500 kts | 121° |
| 2026-05-05 15:15 | 21.60921 | -71.09223 | 37064 ft | 500 kts | 120° |
| 2026-05-05 15:16 | 21.57159 | -71.02216 | 37062 ft | 498 kts | 124° |
| 2026-05-05 15:16 | 21.52931 | -70.95503 | 37064 ft | 498 kts | 126° |
| 2026-05-05 15:17 | 21.48709 | -70.88902 | 37066 ft | 496 kts | 126° |
| 2026-05-05 15:17 | 21.44443 | -70.82220 | 37067 ft | 497 kts | 126° |
| 2026-05-05 15:18 | 21.40197 | -70.75559 | 37073 ft | 496 kts | 127° |
| 2026-05-05 15:18 | 21.35974 | -70.68941 | 37071 ft | 496 kts | 127° |
| 2026-05-05 15:19 | 21.31713 | -70.62273 | 37075 ft | 497 kts | 127° |
| 2026-05-05 15:19 | 21.27461 | -70.55625 | 37073 ft | 497 kts | 127° |
| 2026-05-05 15:20 | 21.23240 | -70.49035 | 37062 ft | 496 kts | 127° |
| 2026-05-05 15:20 | 21.18973 | -70.42378 | 37054 ft | 496 kts | 127° |
| 2026-05-05 15:21 | 21.14712 | -70.35740 | 37059 ft | 496 kts | 128° |
| 2026-05-05 15:21 | 21.10458 | -70.29120 | 37065 ft | 495 kts | 128° |
| 2026-05-05 15:22 | 21.06182 | -70.22476 | 37069 ft | 495 kts | 128° |
| 2026-05-05 15:22 | 21.01920 | -70.15861 | 37068 ft | 496 kts | 128° |
| 2026-05-05 15:23 | 20.97642 | -70.09229 | 37066 ft | 497 kts | 128° |
| 2026-05-05 15:23 | 20.93373 | -70.02618 | 37069 ft | 496 kts | 128° |
| 2026-05-05 15:24 | 20.89136 | -69.96061 | 37071 ft | 495 kts | 128° |
| 2026-05-05 15:24 | 20.84854 | -69.89444 | 37071 ft | 493 kts | 129° |
| 2026-05-05 15:25 | 20.80606 | -69.82888 | 37073 ft | 493 kts | 129° |
| 2026-05-05 15:25 | 20.76347 | -69.76326 | 37074 ft | 492 kts | 129° |
| 2026-05-05 15:26 | 20.72100 | -69.69787 | 37074 ft | 492 kts | 129° |
| 2026-05-05 15:26 | 20.67860 | -69.63267 | 37076 ft | 492 kts | 129° |
| 2026-05-05 15:27 | 20.63611 | -69.56737 | 37079 ft | 491 kts | 129° |
| 2026-05-05 15:27 | 20.59339 | -69.50181 | 37077 ft | 491 kts | 129° |
| 2026-05-05 15:28 | 20.55096 | -69.43679 | 37078 ft | 491 kts | 129° |
| 2026-05-05 15:28 | 20.50872 | -69.37209 | 37079 ft | 490 kts | 129° |
| 2026-05-05 15:29 | 20.46610 | -69.30694 | 37080 ft | 490 kts | 129° |
| 2026-05-05 15:29 | 20.42348 | -69.24183 | 37080 ft | 490 kts | 129° |
| 2026-05-05 15:30 | 20.38082 | -69.17670 | 37082 ft | 490 kts | 129° |
| 2026-05-05 15:30 | 20.33837 | -69.11199 | 37076 ft | 489 kts | 129° |
| 2026-05-05 15:31 | 20.29597 | -69.04747 | 37073 ft | 489 kts | 129° |
| 2026-05-05 15:31 | 20.25363 | -68.98305 | 37072 ft | 489 kts | 129° |
| 2026-05-05 15:32 | 20.21119 | -68.91852 | 37074 ft | 489 kts | 129° |
| 2026-05-05 15:32 | 20.16896 | -68.85440 | 37074 ft | 488 kts | 129° |
| 2026-05-05 15:33 | 20.12646 | -68.78992 | 37074 ft | 488 kts | 129° |
| 2026-05-05 15:33 | 20.08401 | -68.72559 | 37077 ft | 488 kts | 129° |
| 2026-05-05 15:34 | 20.04292 | -68.66054 | 37083 ft | 489 kts | 127° |
| 2026-05-05 15:34 | 20.00223 | -68.59432 | 37082 ft | 489 kts | 127° |
| 2026-05-05 15:35 | 19.96180 | -68.52887 | 37085 ft | 489 kts | 127° |
| 2026-05-05 15:35 | 19.92105 | -68.46310 | 37087 ft | 488 kts | 127° |
| 2026-05-05 15:36 | 19.88058 | -68.39793 | 37090 ft | 488 kts | 127° |
| 2026-05-05 15:36 | 19.83984 | -68.33237 | 37088 ft | 489 kts | 127° |
| 2026-05-05 15:37 | 19.79925 | -68.26715 | 37091 ft | 489 kts | 127° |
| 2026-05-05 15:37 | 19.75829 | -68.20139 | 37093 ft | 488 kts | 127° |
| 2026-05-05 15:38 | 19.71776 | -68.13639 | 37094 ft | 488 kts | 127° |
| 2026-05-05 15:38 | 19.67711 | -68.07128 | 37095 ft | 487 kts | 127° |
| 2026-05-05 15:39 | 19.63658 | -68.00642 | 37094 ft | 487 kts | 127° |
| 2026-05-05 15:39 | 19.59598 | -67.94151 | 37095 ft | 488 kts | 127° |
| 2026-05-05 15:40 | 19.55535 | -67.87656 | 37091 ft | 488 kts | 127° |
| 2026-05-05 15:40 | 19.51471 | -67.81170 | 36671 ft | 486 kts | 127° |
| 2026-05-05 15:40 | 19.49445 | -67.77939 | 36230 ft | 483 kts | 127° |
| 2026-05-05 15:41 | 19.47447 | -67.74760 | 35577 ft | 480 kts | 127° |
| 2026-05-05 15:41 | 19.45442 | -67.71575 | 34792 ft | 479 kts | 126° |
| 2026-05-05 15:41 | 19.43451 | -67.68413 | 33916 ft | 480 kts | 126° |
| 2026-05-05 15:41 | 19.41464 | -67.65257 | 33025 ft | 482 kts | 126° |
| 2026-05-05 15:42 | 19.39464 | -67.62079 | 32185 ft | 483 kts | 126° |
| 2026-05-05 15:42 | 19.37438 | -67.58858 | 31317 ft | 484 kts | 126° |
| 2026-05-05 15:42 | 19.35443 | -67.55688 | 30423 ft | 485 kts | 126° |
| 2026-05-05 15:42 | 19.33414 | -67.52463 | 29508 ft | 486 kts | 126° |
| 2026-05-05 15:43 | 19.31382 | -67.49236 | 28666 ft | 483 kts | 125° |
| 2026-05-05 15:43 | 19.29391 | -67.46074 | 28145 ft | 474 kts | 125° |
| 2026-05-05 15:43 | 19.27413 | -67.42937 | 27588 ft | 467 kts | 125° |
| 2026-05-05 15:43 | 19.25480 | -67.39883 | 27043 ft | 460 kts | 125° |
| 2026-05-05 15:44 | 19.23560 | -67.36852 | 26482 ft | 453 kts | 125° |
| 2026-05-05 15:44 | 19.21680 | -67.33883 | 25922 ft | 448 kts | 125° |
| 2026-05-05 15:44 | 19.19805 | -67.30920 | 25353 ft | 443 kts | 125° |
| 2026-05-05 15:44 | 19.17965 | -67.28013 | 24789 ft | 438 kts | 124° |
| 2026-05-05 15:45 | 19.16148 | -67.25143 | 24227 ft | 433 kts | 124° |
| 2026-05-05 15:45 | 19.14337 | -67.22283 | 23668 ft | 429 kts | 124° |
| 2026-05-05 15:45 | 19.12541 | -67.19448 | 23113 ft | 424 kts | 124° |
| 2026-05-05 15:45 | 19.10773 | -67.16658 | 22557 ft | 421 kts | 124° |
| 2026-05-05 15:46 | 19.09003 | -67.13864 | 22017 ft | 417 kts | 124° |
| 2026-05-05 15:46 | 19.07278 | -67.11140 | 21473 ft | 415 kts | 124° |
| 2026-05-05 15:46 | 19.05532 | -67.08386 | 20909 ft | 413 kts | 124° |
| 2026-05-05 15:46 | 19.03807 | -67.05667 | 20345 ft | 411 kts | 124° |
| 2026-05-05 15:47 | 19.02090 | -67.02961 | 19784 ft | 408 kts | 124° |
| 2026-05-05 15:47 | 19.00925 | -67.01128 | 19406 ft | 407 kts | 124° |
| 2026-05-05 15:47 | 18.98654 | -66.97555 | 18657 ft | 404 kts | 124° |
| 2026-05-05 15:47 | 18.96977 | -66.94918 | 18104 ft | 402 kts | 124° |
| 2026-05-05 15:48 | 18.95290 | -66.92265 | 17547 ft | 400 kts | 125° |
| 2026-05-05 15:48 | 18.93599 | -66.89607 | 16973 ft | 398 kts | 125° |
| 2026-05-05 15:48 | 18.91939 | -66.87002 | 16420 ft | 395 kts | 124° |
| 2026-05-05 15:48 | 18.90268 | -66.84382 | 15873 ft | 392 kts | 124° |
| 2026-05-05 15:49 | 18.88640 | -66.81827 | 15334 ft | 389 kts | 124° |
| 2026-05-05 15:49 | 18.87015 | -66.79276 | 14786 ft | 386 kts | 124° |
| 2026-05-05 15:49 | 18.85390 | -66.76728 | 14236 ft | 383 kts | 124° |
| 2026-05-05 15:49 | 18.83786 | -66.74213 | 13689 ft | 379 kts | 124° |
| 2026-05-05 15:50 | 18.82192 | -66.71711 | 13140 ft | 375 kts | 124° |
| 2026-05-05 15:50 | 18.80630 | -66.69264 | 12611 ft | 371 kts | 124° |
| 2026-05-05 15:50 | 18.79063 | -66.66811 | 12049 ft | 367 kts | 124° |
| 2026-05-05 15:50 | 18.77529 | -66.64410 | 11514 ft | 363 kts | 124° |
| 2026-05-05 15:51 | 18.75978 | -66.62048 | 10961 ft | 359 kts | 126° |
| 2026-05-05 15:51 | 18.74331 | -66.59852 | 10760 ft | 349 kts | 129° |
| 2026-05-05 15:51 | 18.72685 | -66.57727 | 10836 ft | 330 kts | 129° |
| 2026-05-05 15:51 | 18.71160 | -66.55763 | 10855 ft | 310 kts | 129° |
| 2026-05-05 15:52 | 18.69706 | -66.53887 | 10699 ft | 298 kts | 129° |
| 2026-05-05 15:52 | 18.68256 | -66.52018 | 10314 ft | 294 kts | 129° |
| 2026-05-05 15:52 | 18.66840 | -66.50193 | 9930 ft | 291 kts | 129° |
| 2026-05-05 15:52 | 18.65423 | -66.48367 | 9516 ft | 289 kts | 129° |
| 2026-05-05 15:53 | 18.64026 | -66.46566 | 9110 ft | 287 kts | 129° |
| 2026-05-05 15:53 | 18.62653 | -66.44797 | 8724 ft | 285 kts | 129° |
| 2026-05-05 15:53 | 18.61280 | -66.43029 | 8331 ft | 282 kts | 129° |
| 2026-05-05 15:53 | 18.59955 | -66.41322 | 7986 ft | 279 kts | 128° |
| 2026-05-05 15:54 | 18.58660 | -66.39655 | 7660 ft | 274 kts | 128° |
| 2026-05-05 15:54 | 18.57424 | -66.38062 | 7348 ft | 270 kts | 128° |
| 2026-05-05 15:54 | 18.56172 | -66.36450 | 7042 ft | 266 kts | 128° |
| 2026-05-05 15:54 | 18.55346 | -66.35387 | 6827 ft | 263 kts | 128° |